createdAt,value
2022-11-13T00:00:23.195Z,8.26
2022-11-13T00:02:53.360Z,8.30
2022-11-13T00:05:23.737Z,8.31
2022-11-13T00:07:54.245Z,8.32
2022-11-13T00:10:24.434Z,8.27
2022-11-13T00:12:54.558Z,8.24
2022-11-13T00:15:27.635Z,8.21
2022-11-13T00:17:57.872Z,8.16
2022-11-13T00:20:28.099Z,8.10
2022-11-13T00:22:58.359Z,8.10
2022-11-13T00:25:28.440Z,8.09
2022-11-13T00:27:58.645Z,8.03
2022-11-13T00:30:31.450Z,8.02
2022-11-13T00:33:01.583Z,7.96
2022-11-13T00:35:35.161Z,7.93
2022-11-13T00:38:05.265Z,7.90
2022-11-13T00:40:35.377Z,7.84
2022-11-13T00:43:05.398Z,7.83
2022-11-13T00:45:38.154Z,7.80
2022-11-13T00:48:09.245Z,7.76
2022-11-13T00:50:39.369Z,7.73
2022-11-13T00:53:12.648Z,7.74
2022-11-13T00:55:47.270Z,7.68
2022-11-13T00:58:18.325Z,7.65
2022-11-13T01:00:51.796Z,7.65
2022-11-13T01:03:22.129Z,7.59
2022-11-13T01:05:52.491Z,7.59
2022-11-13T01:08:22.622Z,7.58
2022-11-13T01:10:55.495Z,7.59
2022-11-13T01:13:25.656Z,7.54
2022-11-13T01:15:58.353Z,7.55
2022-11-13T01:18:29.197Z,7.53
2022-11-13T01:21:05.826Z,7.53
2022-11-13T01:23:36.202Z,7.47
2022-11-13T01:26:11.844Z,7.49
2022-11-13T01:28:43.451Z,7.47
2022-11-13T01:31:18.393Z,7.43
2022-11-13T01:33:50.091Z,7.39
2022-11-13T01:36:22.293Z,7.37
2022-11-13T01:38:56.281Z,7.35
2022-11-13T01:41:29.479Z,7.33
2022-11-13T01:43:59.840Z,7.31
2022-11-13T01:46:34.563Z,7.33
2022-11-13T01:49:15.773Z,7.35
2022-11-13T01:51:50.851Z,7.30
2022-11-13T01:54:25.056Z,7.29
2022-11-13T01:56:55.725Z,7.30
2022-11-13T01:59:28.763Z,7.28
2022-11-13T02:02:01.669Z,7.26
2022-11-13T02:04:32.872Z,7.23
2022-11-13T02:07:05.415Z,7.22
2022-11-13T02:09:42.504Z,7.20
2022-11-13T02:12:15.675Z,7.13
2022-11-13T02:14:49.670Z,7.11
2022-11-13T02:17:24.248Z,7.06
2022-11-13T02:19:58.608Z,7.04
2022-11-13T02:22:35.698Z,7.01
2022-11-13T02:25:09.958Z,7.00
2022-11-13T02:27:44.814Z,7.00
2022-11-13T02:30:22.019Z,7.01
2022-11-13T02:32:56.132Z,7.00
2022-11-13T02:35:29.576Z,6.97
2022-11-13T02:38:01.846Z,6.96
2022-11-13T02:40:35.910Z,6.94
2022-11-13T02:43:05.728Z,6.93
2022-11-13T02:45:38.681Z,6.92
2022-11-13T02:48:10.633Z,6.89
2022-11-13T02:50:41.665Z,6.88
2022-11-13T02:53:12.133Z,6.90
2022-11-13T02:55:44.883Z,6.87
2022-11-13T02:58:15.225Z,6.85
2022-11-13T03:01:31.522Z,6.78
2022-11-13T03:04:02.009Z,6.74
2022-11-13T03:06:32.149Z,6.73
2022-11-13T03:09:02.255Z,6.67
2022-11-13T03:11:35.512Z,6.63
2022-11-13T03:14:05.677Z,6.60
2022-11-13T03:16:39.010Z,6.53
2022-11-13T03:19:09.883Z,6.48
2022-11-13T03:21:40.033Z,6.42
2022-11-13T03:24:10.389Z,6.39
2022-11-13T03:26:43.574Z,6.37
2022-11-13T03:29:13.860Z,6.34
2022-11-13T03:31:44.184Z,6.29
2022-11-13T03:34:14.575Z,6.26
2022-11-13T03:36:44.648Z,6.17
2022-11-13T03:39:14.842Z,6.13
2022-11-13T03:41:49.861Z,6.12
2022-11-13T03:44:20.047Z,6.08
2022-11-13T03:46:50.162Z,6.01
2022-11-13T03:49:20.298Z,6.00
2022-11-13T03:51:51.104Z,5.96
2022-11-13T03:54:21.341Z,5.91
2022-11-13T03:56:54.098Z,5.88
2022-11-13T03:59:24.449Z,5.86
2022-11-13T04:01:54.476Z,5.85
2022-11-13T04:04:24.848Z,5.82
2022-11-13T04:06:55.018Z,5.82
2022-11-13T04:09:25.267Z,5.78
2022-11-13T04:11:58.169Z,5.76
2022-11-13T04:14:28.253Z,5.77
2022-11-13T04:16:58.400Z,5.75
2022-11-13T04:19:29.014Z,5.73
2022-11-13T04:21:59.176Z,5.71
2022-11-13T04:24:29.241Z,5.74
2022-11-13T04:27:02.099Z,5.71
2022-11-13T04:29:32.397Z,5.69
2022-11-13T04:32:02.537Z,5.70
2022-11-13T04:34:32.647Z,5.70
2022-11-13T04:37:02.822Z,5.65
2022-11-13T04:39:32.994Z,5.63
2022-11-13T04:42:18.118Z,5.60
2022-11-13T04:44:48.187Z,5.60
2022-11-13T04:47:18.420Z,5.58
2022-11-13T04:49:48.458Z,5.59
2022-11-13T04:52:18.580Z,5.58
2022-11-13T04:54:48.709Z,5.57
2022-11-13T04:57:21.411Z,5.57
2022-11-13T04:59:52.146Z,5.61
2022-11-13T05:02:22.744Z,5.63
2022-11-13T05:04:52.962Z,5.64
2022-11-13T05:07:23.188Z,5.61
2022-11-13T05:09:53.368Z,5.57
2022-11-13T05:12:26.064Z,5.64
2022-11-13T05:14:56.154Z,5.61
2022-11-13T05:17:26.278Z,5.60
2022-11-13T05:19:57.956Z,5.62
2022-11-13T05:22:28.095Z,5.62
2022-11-13T05:24:58.112Z,5.57
2022-11-13T05:27:30.810Z,5.60
2022-11-13T05:30:01.050Z,5.56
2022-11-13T05:32:31.149Z,5.59
2022-11-13T05:35:01.188Z,5.61
2022-11-13T05:37:32.359Z,5.63
2022-11-13T05:40:02.494Z,5.58
2022-11-13T05:42:35.336Z,5.55
2022-11-13T05:45:05.517Z,5.54
2022-11-13T05:47:36.271Z,5.53
2022-11-13T05:50:06.845Z,5.55
2022-11-13T05:52:36.977Z,5.54
2022-11-13T05:55:07.965Z,5.54
2022-11-13T05:57:40.612Z,5.55
2022-11-13T06:00:15.169Z,5.57
2022-11-13T06:02:45.231Z,5.61
2022-11-13T06:05:15.393Z,5.62
2022-11-13T06:07:45.484Z,5.62
2022-11-13T06:10:15.682Z,5.65
2022-11-13T06:12:48.354Z,5.66
2022-11-13T06:15:18.531Z,5.76
2022-11-13T06:17:48.895Z,5.75
2022-11-13T06:20:19.184Z,5.90
2022-11-13T06:22:49.256Z,5.92
2022-11-13T06:25:19.556Z,6.03
2022-11-13T06:27:52.324Z,6.24
2022-11-13T06:30:22.612Z,6.51
2022-11-13T06:32:55.935Z,6.81
2022-11-13T06:35:26.075Z,6.99
2022-11-13T06:37:57.786Z,7.23
2022-11-13T06:40:28.129Z,7.33
2022-11-13T06:43:00.699Z,7.59
2022-11-13T06:45:30.803Z,7.89
2022-11-13T06:48:00.867Z,8.16
2022-11-13T06:50:31.104Z,8.50
2022-11-13T06:53:01.186Z,8.64
2022-11-13T06:55:31.297Z,8.80
2022-11-13T06:58:03.982Z,9.05
2022-11-13T07:00:37.115Z,9.25
2022-11-13T07:03:09.241Z,9.34
2022-11-13T07:05:40.231Z,9.62
2022-11-13T07:08:10.385Z,9.94
2022-11-13T07:10:40.960Z,10.34
2022-11-13T07:13:13.904Z,10.49
2022-11-13T07:15:43.943Z,10.52
2022-11-13T07:18:14.040Z,10.67
2022-11-13T07:20:44.374Z,10.80
2022-11-13T07:23:14.501Z,10.93
2022-11-13T07:25:44.687Z,11.15
2022-11-13T07:28:17.467Z,11.22
2022-11-13T07:30:47.564Z,11.14
2022-11-13T07:33:17.708Z,10.96
2022-11-13T07:35:47.742Z,10.76
2022-11-13T07:38:17.828Z,10.74
2022-11-13T07:40:47.979Z,10.55
2022-11-13T07:43:21.010Z,10.56
2022-11-13T07:45:54.901Z,10.82
2022-11-13T07:48:27.158Z,11.14
2022-11-13T07:50:58.430Z,11.19
2022-11-13T07:53:28.543Z,11.42
2022-11-13T07:55:58.733Z,11.59
2022-11-13T07:58:31.904Z,11.62
2022-11-13T08:01:06.417Z,11.69
2022-11-13T08:03:37.341Z,11.65
2022-11-13T08:06:10.714Z,11.84
2022-11-13T08:08:40.806Z,11.94
2022-11-13T08:11:12.299Z,12.04
2022-11-13T08:13:45.043Z,12.03
2022-11-13T08:16:15.177Z,12.15
2022-11-13T08:18:45.297Z,12.42
2022-11-13T08:21:15.886Z,12.66
2022-11-13T08:23:46.021Z,12.91
2022-11-13T08:26:16.388Z,13.15
2022-11-13T08:28:51.555Z,13.34
2022-11-13T08:31:21.674Z,13.48
2022-11-13T08:33:51.854Z,13.77
2022-11-13T08:36:23.675Z,13.90
2022-11-13T08:38:53.757Z,13.99
2022-11-13T08:41:23.972Z,14.08
2022-11-13T08:43:56.694Z,14.19
2022-11-13T08:46:26.849Z,14.25
2022-11-13T08:48:56.956Z,14.57
2022-11-13T08:51:27.216Z,14.50
2022-11-13T08:53:57.303Z,14.56
2022-11-13T08:56:30.496Z,14.40
2022-11-13T08:59:03.440Z,14.35
2022-11-13T09:01:36.033Z,14.22
2022-11-13T09:04:06.356Z,14.32
2022-11-13T09:06:37.085Z,14.37
2022-11-13T09:09:08.045Z,14.29
2022-11-13T09:11:38.612Z,14.10
2022-11-13T09:14:11.410Z,14.28
2022-11-13T09:16:41.613Z,14.32
2022-11-13T09:19:12.081Z,14.28
2022-11-13T09:21:42.470Z,14.29
2022-11-13T09:24:12.655Z,14.28
2022-11-13T09:26:42.998Z,14.36
2022-11-13T09:29:16.520Z,14.46
2022-11-13T09:31:46.749Z,14.63
2022-11-13T09:34:16.853Z,14.87
2022-11-13T09:36:47.071Z,14.76
2022-11-13T09:39:17.349Z,14.94
2022-11-13T09:41:52.901Z,14.73
2022-11-13T09:44:34.344Z,14.85
2022-11-13T09:47:12.012Z,15.20
2022-11-13T09:49:48.229Z,15.16
2022-11-13T09:52:26.435Z,15.21
2022-11-13T09:54:56.930Z,14.98
2022-11-13T09:57:37.361Z,15.29
2022-11-13T10:00:15.829Z,15.52
2022-11-13T10:03:00.755Z,15.61
2022-11-13T10:05:38.047Z,15.49
2022-11-13T10:08:15.955Z,15.42
2022-11-13T10:10:56.053Z,15.47
2022-11-13T10:13:31.537Z,15.47
2022-11-13T10:16:14.446Z,15.53
2022-11-13T10:18:46.900Z,15.45
2022-11-13T10:21:27.813Z,15.44
2022-11-13T10:23:59.593Z,15.55
2022-11-13T10:26:31.517Z,15.55
2022-11-13T10:29:13.037Z,15.51
2022-11-13T10:31:51.849Z,15.37
2022-11-13T10:34:22.712Z,15.47
2022-11-13T10:37:09.252Z,15.46
2022-11-13T10:39:44.942Z,15.56
2022-11-13T10:42:25.302Z,15.50
2022-11-13T10:44:58.089Z,15.49
2022-11-13T10:48:02.560Z,15.55
2022-11-13T10:50:25.232Z,15.23
2022-11-13T10:52:57.684Z,15.03
2022-11-13T10:55:37.758Z,14.92
2022-11-13T10:58:16.873Z,14.94
2022-11-13T11:00:49.887Z,14.84
2022-11-13T11:03:24.662Z,14.86
2022-11-13T11:05:56.542Z,14.84
2022-11-13T11:08:32.033Z,14.74
2022-11-13T11:11:16.447Z,14.57
2022-11-13T11:13:47.003Z,14.60
2022-11-13T11:16:24.464Z,14.68
2022-11-13T11:19:01.501Z,14.83
2022-11-13T11:21:36.515Z,14.71
2022-11-13T11:24:12.496Z,14.58
2022-11-13T11:26:46.726Z,14.61
2022-11-13T11:29:24.766Z,14.60
2022-11-13T11:32:14.105Z,14.75
2022-11-13T11:34:54.976Z,14.88
2022-11-13T11:37:34.065Z,15.00
2022-11-13T11:40:08.739Z,14.94
2022-11-13T11:42:44.581Z,14.96
2022-11-13T11:45:30.234Z,14.98
2022-11-13T11:48:03.027Z,14.83
2022-11-13T11:50:41.526Z,14.83
2022-11-13T11:53:17.903Z,14.63
2022-11-13T11:56:20.497Z,14.61
2022-11-13T11:59:15.905Z,14.24
2022-11-13T12:02:01.204Z,14.09
2022-11-13T12:04:43.362Z,13.86
2022-11-13T12:07:35.982Z,13.63
2022-11-13T12:10:23.794Z,13.48
2022-11-13T12:13:10.469Z,13.23
2022-11-13T12:15:51.133Z,12.89
2022-11-13T12:18:31.462Z,13.01
2022-11-13T12:21:13.196Z,13.03
2022-11-13T12:24:00.191Z,12.73
2022-11-13T12:26:33.829Z,12.17
2022-11-13T12:29:09.699Z,12.18
2022-11-13T12:31:56.680Z,12.24
2022-11-13T12:34:31.751Z,12.27
2022-11-13T12:37:02.983Z,12.32
2022-11-13T12:39:45.753Z,12.40
2022-11-13T12:42:25.320Z,12.38
2022-11-13T12:45:03.629Z,12.19
2022-11-13T12:47:36.608Z,12.14
2022-11-13T12:50:10.149Z,12.11
2022-11-13T12:52:40.280Z,12.09
2022-11-13T12:55:29.268Z,12.13
2022-11-13T12:58:06.815Z,11.90
2022-11-13T13:00:38.940Z,11.69
2022-11-13T13:03:24.642Z,11.71
2022-11-13T13:06:07.789Z,11.32
2022-11-13T13:09:02.901Z,11.42
2022-11-13T13:11:44.478Z,11.40
2022-11-13T13:14:28.569Z,11.07
2022-11-13T13:17:08.475Z,11.14
2022-11-13T13:19:38.590Z,10.98
2022-11-13T13:22:13.883Z,11.00
2022-11-13T13:24:44.271Z,11.08
2022-11-13T13:27:30.987Z,11.05
2022-11-13T13:30:01.700Z,11.06
2022-11-13T13:32:44.924Z,11.12
2022-11-13T13:35:20.268Z,11.13
2022-11-13T13:37:58.086Z,11.10
2022-11-13T13:40:38.612Z,11.05
2022-11-13T13:43:26.516Z,11.00
2022-11-13T13:46:05.784Z,11.07
2022-11-13T13:48:42.000Z,10.98
2022-11-13T13:51:19.932Z,10.99
2022-11-13T13:53:51.087Z,11.02
2022-11-13T13:56:23.323Z,10.96
2022-11-13T13:58:56.753Z,10.97
2022-11-13T14:01:32.414Z,10.92
2022-11-13T14:04:15.281Z,10.95
2022-11-13T14:06:55.034Z,10.95
2022-11-13T14:09:29.511Z,10.90
2022-11-13T14:12:06.197Z,10.82
2022-11-13T14:14:42.799Z,10.69
2022-11-13T14:17:14.661Z,10.62
2022-11-13T14:19:52.163Z,10.56
2022-11-13T14:22:22.979Z,10.60
2022-11-13T14:24:56.433Z,10.60
2022-11-13T14:27:31.126Z,10.53
2022-11-13T14:30:09.918Z,10.42
2022-11-13T14:32:47.133Z,10.46
2022-11-13T14:35:22.718Z,10.40
2022-11-13T14:37:54.616Z,10.41
2022-11-13T14:40:28.795Z,10.23
2022-11-13T14:43:01.601Z,10.23
2022-11-13T14:45:36.605Z,10.25
2022-11-13T14:48:20.288Z,10.31
2022-11-13T14:50:54.013Z,10.31
2022-11-13T14:53:33.219Z,10.31
2022-11-13T14:56:05.423Z,10.23
2022-11-13T14:58:37.443Z,10.33
2022-11-13T15:01:22.850Z,10.26
2022-11-13T15:03:54.556Z,10.18
2022-11-13T15:06:26.797Z,10.18
2022-11-13T15:08:59.054Z,10.05
2022-11-13T15:11:30.412Z,10.10
2022-11-13T15:14:04.317Z,10.08
2022-11-13T15:16:37.502Z,10.08
2022-11-13T15:19:14.159Z,10.04
2022-11-13T15:21:51.091Z,9.95
2022-11-13T15:24:34.495Z,10.07
2022-11-13T15:27:05.997Z,10.07
2022-11-13T15:29:36.323Z,10.05
2022-11-13T15:32:12.386Z,10.04
2022-11-13T15:34:42.510Z,10.01
2022-11-13T15:37:15.253Z,10.00
2022-11-13T15:39:45.804Z,9.88
2022-11-13T15:42:18.949Z,9.90
2022-11-13T15:44:49.144Z,9.87
2022-11-13T15:47:32.404Z,9.83
2022-11-13T15:50:19.912Z,9.82
2022-11-13T15:52:55.005Z,9.76
2022-11-13T15:55:29.432Z,9.63
2022-11-13T15:58:03.699Z,9.63
2022-11-13T16:00:34.500Z,9.66
2022-11-13T16:03:11.811Z,9.73
2022-11-13T16:05:42.198Z,9.68
2022-11-13T16:08:15.311Z,9.66
2022-11-13T16:10:46.135Z,9.61
2022-11-13T16:13:17.451Z,9.63
2022-11-13T16:15:49.122Z,9.62
2022-11-13T16:18:29.281Z,9.66
2022-11-13T16:20:59.707Z,9.68
2022-11-13T16:23:30.238Z,9.75
2022-11-13T16:26:04.569Z,9.80
2022-11-13T16:28:52.829Z,9.84
2022-11-13T16:31:25.001Z,9.75
2022-11-13T16:33:57.770Z,9.73
2022-11-13T16:36:28.894Z,9.52
2022-11-13T16:38:59.115Z,9.57
2022-11-13T16:41:29.182Z,9.63
2022-11-13T16:43:59.567Z,9.69
2022-11-13T16:46:32.354Z,9.67
2022-11-13T16:49:05.339Z,9.57
2022-11-13T16:51:35.460Z,9.62
2022-11-13T16:54:05.664Z,9.62
2022-11-13T16:56:35.782Z,9.51
2022-11-13T16:59:05.977Z,9.46
2022-11-13T17:01:36.214Z,9.47
2022-11-13T17:04:09.174Z,9.41
2022-11-13T17:06:39.674Z,9.37
2022-11-13T17:09:09.996Z,9.34
2022-11-13T17:11:40.183Z,9.37
2022-11-13T17:14:10.244Z,9.41
2022-11-13T17:16:40.485Z,9.46
2022-11-13T17:19:15.698Z,9.29
2022-11-13T17:21:45.836Z,9.33
2022-11-13T17:24:15.932Z,9.21
2022-11-13T17:26:46.127Z,9.29
2022-11-13T17:29:16.560Z,9.28
2022-11-13T17:31:47.409Z,9.28
2022-11-13T17:34:20.231Z,9.29
2022-11-13T17:36:50.316Z,9.35
2022-11-13T17:39:20.681Z,9.31
2022-11-13T17:41:50.968Z,9.32
2022-11-13T17:44:21.166Z,9.36
2022-11-13T17:46:52.164Z,9.28
2022-11-13T17:49:25.516Z,9.33
2022-11-13T17:51:55.689Z,9.25
2022-11-13T17:54:25.838Z,9.27
2022-11-13T17:56:55.977Z,9.26
2022-11-13T17:59:26.547Z,9.27
2022-11-13T18:01:56.662Z,9.27
2022-11-13T18:04:29.529Z,9.17
2022-11-13T18:06:59.716Z,9.12
2022-11-13T18:09:30.085Z,9.08
2022-11-13T18:12:00.305Z,9.04
2022-11-13T18:14:30.345Z,9.00
2022-11-13T18:17:00.450Z,8.96
2022-11-13T18:19:33.357Z,8.91
2022-11-13T18:22:03.604Z,8.83
2022-11-13T18:24:33.803Z,8.79
2022-11-13T18:27:06.185Z,8.78
2022-11-13T18:29:36.667Z,8.72
2022-11-13T18:32:07.152Z,8.68
2022-11-13T18:34:40.001Z,8.66
2022-11-13T18:37:10.231Z,8.60
2022-11-13T18:39:41.268Z,8.55
2022-11-13T18:42:11.526Z,8.47
2022-11-13T18:44:41.700Z,8.41
2022-11-13T18:47:11.822Z,8.30
2022-11-13T18:49:45.111Z,8.28
2022-11-13T18:52:15.889Z,8.24
2022-11-13T18:54:46.384Z,8.19
2022-11-13T18:57:16.542Z,8.16
2022-11-13T18:59:46.777Z,8.01
2022-11-13T19:02:17.487Z,7.96
2022-11-13T19:04:50.522Z,7.88
2022-11-13T19:07:21.139Z,7.84
2022-11-13T19:09:51.346Z,7.80
2022-11-13T19:12:21.646Z,7.74
2022-11-13T19:14:51.851Z,7.67
2022-11-13T19:17:22.011Z,7.64
2022-11-13T19:19:54.878Z,7.61
2022-11-13T19:22:25.342Z,7.54
2022-11-13T19:24:58.606Z,7.50
2022-11-13T19:27:28.862Z,7.49
2022-11-13T19:29:59.032Z,7.49
2022-11-13T19:32:29.347Z,7.44
2022-11-13T19:35:02.070Z,7.40
2022-11-13T19:37:32.472Z,7.38
2022-11-13T19:40:04.011Z,7.37
2022-11-13T19:42:40.896Z,7.33
2022-11-13T19:45:13.091Z,7.30
2022-11-13T19:47:43.441Z,7.25
2022-11-13T19:50:18.978Z,7.23
2022-11-13T19:52:51.664Z,7.19
2022-11-13T19:55:21.918Z,7.17
2022-11-13T19:57:52.249Z,7.14
2022-11-13T20:00:25.393Z,7.08
2022-11-13T20:02:57.969Z,7.05
2022-11-13T20:05:30.665Z,7.02
2022-11-13T20:08:01.252Z,6.97
2022-11-13T20:10:31.425Z,6.94
2022-11-13T20:13:01.624Z,6.90
2022-11-13T20:15:31.753Z,6.84
2022-11-13T20:18:01.929Z,6.80
2022-11-13T20:20:35.653Z,6.77
2022-11-13T20:23:14.238Z,6.74
2022-11-13T20:25:44.851Z,6.71
2022-11-13T20:28:14.941Z,6.76
2022-11-13T20:30:48.258Z,6.76
2022-11-13T20:33:22.365Z,6.74
2022-11-13T20:35:58.974Z,6.73
2022-11-13T20:38:29.303Z,6.73
2022-11-13T20:40:59.784Z,6.73
2022-11-13T20:43:29.847Z,6.72
2022-11-13T20:46:05.018Z,6.73
2022-11-13T20:48:35.570Z,6.63
2022-11-13T20:51:13.415Z,6.67
2022-11-13T20:53:43.895Z,6.65
2022-11-13T20:56:14.580Z,6.63
2022-11-13T20:58:44.966Z,6.61
2022-11-13T21:01:16.970Z,6.57
2022-11-13T21:03:48.413Z,6.55
2022-11-13T21:06:24.940Z,6.54
2022-11-13T21:08:56.854Z,6.53
2022-11-13T21:11:29.597Z,6.57
2022-11-13T21:14:00.843Z,6.53
2022-11-13T21:16:31.007Z,6.52
2022-11-13T21:19:02.463Z,6.51
2022-11-13T21:21:35.196Z,6.52
2022-11-13T21:24:05.276Z,6.50
2022-11-13T21:26:35.408Z,6.50
2022-11-13T21:29:05.616Z,6.49
2022-11-13T21:31:35.785Z,6.47
2022-11-13T21:34:05.885Z,6.44
2022-11-13T21:36:38.863Z,6.37
2022-11-13T21:39:09.073Z,6.37
2022-11-13T21:41:39.221Z,6.36
2022-11-13T21:44:11.393Z,6.35
2022-11-13T21:46:45.788Z,6.35
2022-11-13T21:49:16.869Z,6.21
2022-11-13T21:51:49.583Z,6.23
2022-11-13T21:54:19.697Z,6.21
2022-11-13T21:56:49.765Z,6.20
2022-11-13T21:59:19.858Z,6.20
2022-11-13T22:01:50.147Z,6.16
2022-11-13T22:04:20.355Z,6.17
2022-11-13T22:06:54.629Z,6.17
2022-11-13T22:09:26.477Z,6.14
2022-11-13T22:11:57.727Z,6.14
2022-11-13T22:14:27.857Z,6.12
2022-11-13T22:16:58.158Z,6.11
2022-11-13T22:19:32.245Z,6.07
2022-11-13T22:22:07.572Z,6.03
2022-11-13T22:24:37.580Z,6.01
2022-11-13T22:27:07.741Z,5.99
2022-11-13T22:29:38.354Z,5.99
2022-11-13T22:32:08.732Z,5.96
2022-11-13T22:34:38.751Z,5.96
2022-11-13T22:37:11.542Z,5.98
2022-11-13T22:39:41.824Z,5.97
2022-11-13T22:42:11.914Z,5.96
2022-11-13T22:44:55.446Z,5.99
2022-11-13T22:47:26.327Z,5.99
2022-11-13T22:49:56.482Z,5.99
2022-11-13T22:52:29.221Z,6.05
2022-11-13T22:54:59.255Z,5.98
2022-11-13T22:57:29.340Z,5.98
2022-11-13T22:59:59.848Z,5.95
2022-11-13T23:02:29.943Z,5.93
2022-11-13T23:04:59.929Z,5.93
2022-11-13T23:07:32.880Z,5.92
2022-11-13T23:10:03.283Z,5.94
2022-11-13T23:12:33.485Z,5.93
2022-11-13T23:15:03.564Z,5.93
2022-11-13T23:17:33.785Z,5.91
2022-11-13T23:20:03.860Z,5.92
2022-11-13T23:22:36.599Z,5.93
2022-11-13T23:25:07.244Z,5.86
2022-11-13T23:27:37.317Z,5.89
2022-11-13T23:30:08.705Z,5.85
2022-11-13T23:32:39.156Z,5.86
2022-11-13T23:35:10.231Z,5.85
2022-11-13T23:37:42.999Z,5.84
2022-11-13T23:40:14.368Z,5.84
2022-11-13T23:42:55.143Z,5.86
2022-11-13T23:45:25.687Z,5.81
2022-11-13T23:47:55.753Z,5.82
2022-11-13T23:50:25.885Z,5.76
2022-11-13T23:52:58.700Z,5.77
2022-11-13T23:55:28.807Z,5.73
2022-11-13T23:58:00.422Z,5.72
